Aomori, Japan
Current Conditions -  °F | °C
As of 5:00 PM on Tuesday 21 Oct 2014 (Local Time) from RJSA Reporting Station
Rain Showers Rain Showers  
Wind Chill: 54°   Ceiling: 7000
Heat Index: 54°   Visibility: 4mi
Dew Point: 52°   Wind: 7mph
Humidity: 94%   Direction: 220°SW
Pressure: 29.94"   Gusts: NA
Location:  40.83°N, 140.74°E
Report Text: RJSA 210800Z 22006KT 6000 BCFG -SHRA FEW001 SCT030 BKN070 12/11 Q1014
Loading
Personal Weather Stations






























Interactive Weather Map
Tropical Storm Tracking
New forecast layout! Learn more

10-Day Weather Forecast

Advertisements
Track Severe Weather on mobile